Aeroporto :
LOGIN :

Iscrizione | Disclaimer

   EN    FR    IT 

 










Sommario :    VFR   VFR Marginale   IFR   IFR Intensivo   IFR Molto Intensivo
Visibilità : 
Base nubi : 
>= 8 km
>= 3000ft
5 / 8 km
1000 / 3000 ft
1500m / 5 km
500 / 1000 ft
800 / 1500m
200 / 500 ft
< 800m
< 200 ft
Simboli :   Temporali  Nebbia  Neve Forte  Precipitazioni Forti  Vento > 20 kt
SIGMETs :   Varie  Temporali  Ghiacco  Turbolenza  Onda orograficha  Ceneri Vulcaniche







- Altitudine del aeroporto : 87 ft
- Codice IATA : AHO


LIEA - Fertilia Alghero

ULTIMO METAR :
  • 191520Z 29005KT 260V330 9999 SCT030 14/07 Q1021

METARs OBSOLETI :
  • 191450Z 29006KT 250V320 9999 SCT030 14/07 Q1021
  • 191420Z 30006KT 260V340 9999 SCT030 15/18 Q1021
  • 191350Z 29007KT 260V320 9999 FEW025 15/08 Q1021
  • 191320Z 29008KT 260V320 9999 FEW025 15/08 Q1021
  • 191250Z 28008KT 250V310 9999 FEW025 15/08 Q1021

TAF TAF LIEA
Valido dal 19 a 12 ore il 20 a 12 ore UTC


191100Z 1912/2012 VRB05KT 9999 FEW040
TEMPO 2000/2006 3000 BR
Nessun NOTAM noto per questo aeroporto.
1 SIGMET conosciuto per la FIR Roma (LIRR) :
 
Ceneri vulcaniche
LIRR SIGMET 4 VALID 191200/191830 LIIB
LIRR ROMA FIR VA ERUPTION MT ETNA PSN N3744 E01500 VA CLD OBS AT 1200Z WI N3725 E01445 - N3755 E01400 - N3830 E01434 - N3740 E01504 - N3725 E01445 MOV W 10KT SFC/FL180 NC FCST AT 1800Z WI N3730 E01425 - N3804 E01319 - N3845 E01355 - N3734 E01510 - N3730 E01425=



MetMap, La meteo Aeronautica in un colpo d'occhio ! - Copyright ORBIFLY Dicembre 2007 - Disclaimer

ORBIFLY MET'MAP TEAM :

Programmazione e sviluppo : Alexandra Zaïnal
Concezione e sviluppo : Baudouin d'Aumeries
Co-Programmazione e sviluppo : Marc-Olivier Méhu
Supporto tecnico e logistico : Manuel Goepfert
Aiuto per la traduzione : Arnaldo La Scala

Contatto : metmap@orbifly.com




FONTI E CREDITI :

   NOAA